Time,TemperatureF,DewpointF,PressureIn,WindDirection,WindDirectionDegrees,WindSpeedMPH,WindSpeedGustMPH,Humidity,HourlyPrecipIn,Conditions,Clouds,dailyrainin,SoftwareType,DateUTC
2013-05-19 00:05:00,75.9,72.1,29.79,South,180,2.0,4.0,88,0.00,SCT,,0.00,WeatherDisplay:10.37,2013-05-19 05:05:00,
2013-05-19 00:10:00,75.9,72.4,29.79,SSW,198,2.0,8.0,89,0.00,SCT,,0.00,WeatherDisplay:10.37,2013-05-19 05:10:00,
2013-05-19 00:25:00,75.8,72.3,29.80,South,179,3.0,8.0,89,0.00,CLR,,0.00,WeatherDisplay:10.37,2013-05-19 05:25:00,
2013-05-19 00:30:00,75.6,72.5,29.79,ESE,114,3.0,9.0,90,0.00,CLR,,0.00,WeatherDisplay:10.37,2013-05-19 05:30:00,
2013-05-19 00:45:00,75.4,72.3,29.78,East,93,2.0,6.0,90,0.00,CLR,,0.00,WeatherDisplay:10.37,2013-05-19 05:45:00,
2013-05-19 00:50:00,75.2,72.1,29.79,ESE,113,2.0,6.0,90,0.00,CLR,,0.00,WeatherDisplay:10.37,2013-05-19 05:50:00,
2013-05-19 01:10:00,75.2,72.4,29.81,SW,218,3.0,23.0,91,0.00,CLR,,0.00,WeatherDisplay:10.37,2013-05-19 06:10:00,
2013-05-19 01:30:00,69.7,61.4,29.83,WNW,298,3.0,14.0,75,0.00,CLR,,0.00,WeatherDisplay:10.37,2013-05-19 06:30:00,
2013-05-19 01:40:00,68.2,61.8,29.83,WNW,297,2.0,12.0,80,0.00,CLR,,0.00,WeatherDisplay:10.37,2013-05-19 06:40:00,
2013-05-19 01:50:00,67.0,61.7,29.83,NNW,332,3.0,10.0,83,0.00,-RA,,0.00,WeatherDisplay:10.37,2013-05-19 06:50:00,
2013-05-19 02:05:00,65.5,61.2,29.81,ESE,118,0.0,3.0,86,0.01,-RA,,0.01,WeatherDisplay:10.37,2013-05-19 07:05:00,
2013-05-19 02:10:00,65.2,61.2,29.82,WSW,252,0.0,4.0,87,0.00,-RA,,0.01,WeatherDisplay:10.37,2013-05-19 07:10:00,
2013-05-19 02:25:00,64.5,61.2,29.81,NNE,31,0.0,3.0,89,0.00,-RA,,0.01,WeatherDisplay:10.37,2013-05-19 07:25:00,
2013-05-19 02:30:00,64.4,61.7,29.80,NNE,31,2.0,4.0,91,0.00,-RA,,0.01,WeatherDisplay:10.37,2013-05-19 07:30:00,
2013-05-19 02:45:00,64.2,61.8,29.80,NNE,31,1.0,4.0,92,0.01,-RA,,0.04,WeatherDisplay:10.37,2013-05-19 07:45:00,
2013-05-19 02:50:00,64.1,62.0,29.80,NNE,32,2.0,5.0,93,0.02,-RA,,0.06,WeatherDisplay:10.37,2013-05-19 07:50:00,
2013-05-19 03:05:00,63.9,62.1,29.78,ENE,57,5.0,9.0,94,0.03,-RA,,0.11,WeatherDisplay:10.37,2013-05-19 08:05:00,
2013-05-19 03:15:00,63.7,62.2,29.78,ENE,67,1.0,4.0,95,0.01,RA,,0.14,WeatherDisplay:10.37,2013-05-19 08:15:00,
2013-05-19 03:30:00,63.4,62.2,29.80,ENE,77,5.0,16.0,96,0.18,RA,,0.35,WeatherDisplay:10.37,2013-05-19 08:30:00,
2013-05-19 03:50:00,63.1,62.2,29.78,East,89,2.0,6.0,97,0.00,OVC,,0.39,WeatherDisplay:10.37,2013-05-19 08:50:00,
2013-05-19 04:30:00,63.4,63.1,29.76,ENE,61,3.0,6.0,99,0.00,OVC,,0.39,WeatherDisplay:10.37,2013-05-19 09:30:00,
2013-05-19 04:35:00,63.2,62.9,29.75,ENE,59,3.0,10.0,99,0.00,CLR,,0.39,WeatherDisplay:10.37,2013-05-19 09:35:00,
2013-05-19 04:55:00,62.9,62.6,29.75,ENE,69,3.0,8.0,99,0.00,CLR,,0.39,WeatherDisplay:10.37,2013-05-19 09:55:00,
2013-05-19 05:05:00,62.9,62.6,29.75,ENE,71,3.0,10.0,99,0.00,CLR,,0.39,WeatherDisplay:10.37,2013-05-19 10:05:00,
2013-05-19 05:10:00,62.8,62.5,29.74,ENE,65,3.0,9.0,99,0.00,CLR,,0.39,WeatherDisplay:10.37,2013-05-19 10:10:00,
2013-05-19 05:25:00,62.5,62.2,29.71,ENE,65,3.0,8.0,99,0.00,CLR,,0.39,WeatherDisplay:10.37,2013-05-19 10:25:00,
2013-05-19 05:30:00,62.3,62.0,29.70,ENE,61,1.0,6.0,99,0.00,CLR,,0.39,WeatherDisplay:10.37,2013-05-19 10:30:00,
2013-05-19 05:45:00,62.3,62.3,29.72,ENE,61,1.0,3.0,100,0.00,CLR,,0.39,WeatherDisplay:10.37,2013-05-19 10:45:00,
2013-05-19 05:55:00,62.5,62.2,29.73,East,85,2.0,5.0,99,0.00,CLR,,0.39,WeatherDisplay:10.37,2013-05-19 10:55:00,
2013-05-19 06:15:00,62.3,62.3,29.75,ESE,102,6.0,13.0,100,0.00,CLR,,0.39,WeatherDisplay:10.37,2013-05-19 11:15:00,
2013-05-19 06:35:00,62.5,62.5,29.78,SSE,148,3.0,9.0,100,0.00,CLR,,0.39,WeatherDisplay:10.37,2013-05-19 11:35:00,
2013-05-19 06:50:00,62.5,62.5,29.80,SE,133,3.0,10.0,100,0.00,CLR,,0.39,WeatherDisplay:10.37,2013-05-19 11:50:00,
2013-05-19 07:30:00,63.1,63.1,29.82,SW,217,2.0,8.0,100,0.01,RA,,0.44,WeatherDisplay:10.37,2013-05-19 12:30:00,
2013-05-19 07:35:00,63.1,63.1,29.82,SE,134,2.0,8.0,100,0.01,RA,,0.45,WeatherDisplay:10.37,2013-05-19 12:35:00,
2013-05-19 07:45:00,63.1,63.1,29.80,ESE,118,1.0,6.0,100,0.01,RA,,0.48,WeatherDisplay:10.37,2013-05-19 12:45:00,
2013-05-19 07:50:00,63.1,63.1,29.79,ESE,117,2.0,5.0,100,0.01,RA,,0.49,WeatherDisplay:10.37,2013-05-19 12:50:00,
2013-05-19 07:55:00,62.9,62.9,29.78,ESE,107,3.0,6.0,100,0.02,-RA,,0.51,WeatherDisplay:10.37,2013-05-19 12:55:00,
2013-05-19 08:05:00,62.9,62.9,29.76,ENE,76,6.0,12.0,100,0.00,-RA,,0.52,WeatherDisplay:10.37,2013-05-19 13:05:00,
2013-05-19 08:10:00,62.8,62.8,29.73,NE,54,3.0,9.0,100,0.00,-RA,,0.52,WeatherDisplay:10.37,2013-05-19 13:10:00,
2013-05-19 08:25:00,62.8,62.8,29.69,East,86,6.0,12.0,100,0.00,-RA,,0.52,WeatherDisplay:10.37,2013-05-19 13:25:00,
2013-05-19 08:30:00,62.8,62.8,29.71,East,87,3.0,10.0,100,0.00,-RA,,0.52,WeatherDisplay:10.37,2013-05-19 13:30:00,
2013-05-19 08:45:00,63.2,63.2,29.72,ESE,103,3.0,9.0,100,0.00,-RA,,0.52,WeatherDisplay:10.37,2013-05-19 13:45:00,
2013-05-19 08:50:00,63.4,63.4,29.71,East,96,6.0,12.0,100,0.00,-RA,,0.52,WeatherDisplay:10.37,2013-05-19 13:50:00,
2013-05-19 09:05:00,63.7,63.7,29.71,ESE,123,3.0,9.0,100,0.00,-RA,,0.52,WeatherDisplay:10.37,2013-05-19 14:05:00,
2013-05-19 09:10:00,64.1,64.1,29.71,East,92,3.0,8.0,100,0.00,-RA,,0.52,WeatherDisplay:10.37,2013-05-19 14:10:00,
2013-05-19 09:25:00,65.1,65.1,29.71,SE,127,2.0,6.0,100,0.00,CLR,,0.52,WeatherDisplay:10.37,2013-05-19 14:25:00,
2013-05-19 09:30:00,65.5,65.5,29.71,ESE,111,5.0,10.0,100,0.00,CLR,,0.52,WeatherDisplay:10.37,2013-05-19 14:30:00,
2013-05-19 09:55:00,66.6,66.6,29.69,ENE,78,6.0,15.0,100,0.00,CLR,,0.52,WeatherDisplay:10.37,2013-05-19 14:55:00,
2013-05-19 10:05:00,67.6,67.3,29.68,East,95,6.0,14.0,99,0.00,CLR,,0.52,WeatherDisplay:10.37,2013-05-19 15:05:00,
2013-05-19 10:10:00,68.2,67.0,29.68,East,94,8.0,16.0,96,0.00,CLR,,0.52,WeatherDisplay:10.37,2013-05-19 15:10:00,
2013-05-19 10:15:00,68.8,66.7,29.68,ESE,109,5.0,24.0,93,0.00,CLR,,0.52,WeatherDisplay:10.37,2013-05-19 15:15:00,
2013-05-19 10:25:00,70.2,66.1,29.69,SE,135,5.0,16.0,87,0.00,CLR,,0.52,WeatherDisplay:10.37,2013-05-19 15:25:00,
2013-05-19 10:35:00,71.9,67.1,29.69,ESE,107,6.0,12.0,85,0.00,CLR,,0.52,WeatherDisplay:10.37,2013-05-19 15:35:00,
2013-05-19 11:24:00,75.8,68.5,29.69,SE,125,6.0,20.0,78,0.00,RA,,0.52,WeatherDisplay:10.37,2013-05-19 16:24:00,
2013-05-19 11:34:00,76.1,68.4,29.69,SE,133,14.0,26.0,77,0.00,CLR,,0.52,WeatherDisplay:10.37,2013-05-19 16:34:00,
2013-05-19 11:44:00,76.4,69.1,29.69,SSE,156,7.0,24.0,78,0.00,CLR,,0.52,WeatherDisplay:10.37,2013-05-19 16:44:00,
2013-05-19 11:49:00,76.9,69.5,29.69,SSE,167,7.0,16.0,78,0.00,CLR,,0.52,WeatherDisplay:10.37,2013-05-19 16:49:00,
2013-05-19 11:54:00,77.3,69.9,29.69,South,177,5.0,15.0,78,0.00,CLR,,0.52,WeatherDisplay:10.37,2013-05-19 16:54:00,
2013-05-19 11:59:00,77.5,68.9,29.69,SSE,152,9.0,21.0,75,0.00,CLR,,0.52,WeatherDisplay:10.37,2013-05-19 16:59:00,
2013-05-19 12:09:00,77.9,68.9,29.69,SE,145,6.0,16.0,74,0.01,RA,,0.53,WeatherDisplay:10.37,2013-05-19 17:09:00,
2013-05-19 12:14:00,78.0,69.1,29.69,SE,145,9.0,20.0,74,0.00,RA,,0.53,WeatherDisplay:10.37,2013-05-19 17:14:00,
2013-05-19 12:24:00,78.2,68.9,29.68,SSE,166,6.0,28.0,73,0.00,OVC,,0.53,WeatherDisplay:10.37,2013-05-19 17:24:00,
2013-05-19 12:29:00,78.4,69.0,29.68,South,187,9.0,15.0,73,0.00,OVC,,0.53,WeatherDisplay:10.37,2013-05-19 17:29:00,
2013-05-19 12:39:00,77.9,68.5,29.69,SSE,161,6.0,19.0,73,0.00,OVC,,0.53,WeatherDisplay:10.37,2013-05-19 17:39:00,
2013-05-19 12:44:00,77.5,68.6,29.68,SE,134,6.0,15.0,74,0.00,OVC,,0.53,WeatherDisplay:10.37,2013-05-19 17:44:00,
2013-05-19 12:49:00,77.5,68.5,29.68,SE,144,8.0,16.0,74,0.00,OVC,,0.53,WeatherDisplay:10.37,2013-05-19 17:49:00,
2013-05-19 12:59:00,76.7,67.8,29.68,SSW,194,3.0,16.0,74,0.00,OVC,,0.53,WeatherDisplay:10.37,2013-05-19 17:59:00,
2013-05-19 13:04:00,76.6,68.1,29.68,South,177,7.0,15.0,75,0.00,OVC,,0.53,WeatherDisplay:10.37,2013-05-19 18:04:00,
2013-05-19 13:09:00,76.8,68.3,29.69,SSE,166,8.0,18.0,75,0.00,OVC,,0.53,WeatherDisplay:10.37,2013-05-19 18:09:00,
2013-05-19 13:19:00,77.4,68.9,29.67,South,172,5.0,23.0,75,0.00,OVC,,0.53,WeatherDisplay:10.37,2013-05-19 18:19:00,
2013-05-19 13:24:00,77.9,69.3,29.67,South,170,5.0,14.0,75,0.00,OVC,,0.53,WeatherDisplay:10.37,2013-05-19 18:24:00,
2013-05-19 13:29:00,78.2,69.3,29.67,SSE,163,6.0,13.0,74,0.00,OVC,,0.53,WeatherDisplay:10.37,2013-05-19 18:29:00,
2013-05-19 13:39:00,78.0,69.5,29.67,South,169,6.0,10.0,75,0.00,OVC,,0.53,WeatherDisplay:10.37,2013-05-19 18:39:00,
2013-05-19 13:44:00,78.1,69.1,29.67,SE,140,3.0,15.0,74,0.00,OVC,,0.53,WeatherDisplay:10.37,2013-05-19 18:44:00,
2013-05-19 13:49:00,78.0,69.4,29.67,ESE,114,6.0,15.0,75,0.00,OVC,,0.53,WeatherDisplay:10.37,2013-05-19 18:49:00,
2013-05-19 13:59:00,77.9,68.9,29.67,South,175,5.0,15.0,74,0.00,OVC,,0.53,WeatherDisplay:10.37,2013-05-19 18:59:00,
2013-05-19 14:04:00,77.9,69.3,29.67,SSW,192,3.0,15.0,75,0.00,OVC,,0.53,WeatherDisplay:10.37,2013-05-19 19:04:00,
2013-05-19 14:09:00,78.0,69.5,29.66,SE,140,6.0,15.0,75,0.00,OVC,,0.53,WeatherDisplay:10.37,2013-05-19 19:09:00,
2013-05-19 14:19:00,78.2,69.6,29.66,SSE,162,5.0,14.0,75,0.00,OVC,,0.53,WeatherDisplay:10.37,2013-05-19 19:19:00,
2013-05-19 14:24:00,78.2,69.3,29.66,South,177,5.0,10.0,74,0.00,OVC,,0.53,WeatherDisplay:10.37,2013-05-19 19:24:00,
2013-05-19 14:29:00,78.0,69.5,29.65,South,184,5.0,12.0,75,0.00,OVC,,0.53,WeatherDisplay:10.37,2013-05-19 19:29:00,
2013-05-19 14:34:00,78.3,69.7,29.66,South,182,2.0,10.0,75,0.00,OVC,,0.53,WeatherDisplay:10.37,2013-05-19 19:34:00,
2013-05-19 14:39:00,78.6,69.6,29.65,SSW,200,9.0,13.0,74,0.00,OVC,,0.53,WeatherDisplay:10.37,2013-05-19 19:39:00,
2013-05-19 14:44:00,78.8,70.2,29.65,SSW,207,5.0,12.0,75,0.00,OVC,,0.53,WeatherDisplay:10.37,2013-05-19 19:44:00,
2013-05-19 14:49:00,79.0,70.4,29.65,SSW,211,3.0,10.0,75,0.00,OVC,,0.53,WeatherDisplay:10.37,2013-05-19 19:49:00,
2013-05-19 14:54:00,79.2,70.6,29.65,SSW,210,6.0,14.0,75,0.00,OVC,,0.53,WeatherDisplay:10.37,2013-05-19 19:54:00,
2013-05-19 14:59:00,79.0,70.0,29.65,SSW,194,8.0,16.0,74,0.00,OVC,,0.53,WeatherDisplay:10.37,2013-05-19 19:59:00,
2013-05-19 15:04:00,79.2,70.6,29.65,SSW,193,3.0,13.0,75,0.00,OVC,,0.53,WeatherDisplay:10.37,2013-05-19 20:04:00,
2013-05-19 15:09:00,79.3,70.3,29.65,SSW,202,5.0,14.0,74,0.00,OVC,,0.53,WeatherDisplay:10.37,2013-05-19 20:09:00,
2013-05-19 15:14:00,79.4,70.8,29.65,SSW,195,7.0,14.0,75,0.00,OVC,,0.53,WeatherDisplay:10.37,2013-05-19 20:14:00,
2013-05-19 15:19:00,79.3,70.7,29.64,SSW,196,3.0,14.0,75,0.00,OVC,,0.53,WeatherDisplay:10.37,2013-05-19 20:19:00,
2013-05-19 15:24:00,79.4,70.8,29.64,South,185,2.0,8.0,75,0.00,OVC,,0.53,WeatherDisplay:10.37,2013-05-19 20:24:00,
2013-05-19 15:29:00,79.4,70.7,29.64,South,185,8.0,14.0,75,0.00,OVC,,0.53,WeatherDisplay:10.37,2013-05-19 20:29:00,
2013-05-19 15:34:00,79.3,70.7,29.63,South,170,5.0,16.0,75,0.00,OVC,,0.53,WeatherDisplay:10.37,2013-05-19 20:34:00,
2013-05-19 15:39:00,79.3,70.7,29.63,SSE,166,5.0,13.0,75,0.00,OVC,,0.53,WeatherDisplay:10.37,2013-05-19 20:39:00,
2013-05-19 15:44:00,79.5,70.9,29.63,South,169,7.0,16.0,75,0.00,OVC,,0.53,WeatherDisplay:10.37,2013-05-19 20:44:00,
2013-05-19 15:49:00,79.7,71.5,29.63,SSE,158,3.0,10.0,76,0.00,OVC,,0.53,WeatherDisplay:10.37,2013-05-19 20:49:00,
2013-05-19 15:54:00,79.7,71.1,29.63,SSE,166,3.0,13.0,75,0.00,OVC,,0.53,WeatherDisplay:10.37,2013-05-19 20:54:00,
2013-05-19 15:59:00,79.7,71.1,29.62,South,171,3.0,13.0,75,0.00,OVC,,0.53,WeatherDisplay:10.37,2013-05-19 20:59:00,
2013-05-19 16:09:00,79.9,71.3,29.62,SW,228,5.0,14.0,75,0.00,BKN,,0.53,WeatherDisplay:10.37,2013-05-19 21:09:00,
2013-05-19 16:19:00,81.0,71.5,29.60,SSW,200,6.0,13.0,73,0.00,BKN,,0.53,WeatherDisplay:10.37,2013-05-19 21:19:00,
2013-05-19 16:24:00,81.6,71.7,29.59,SSW,204,6.0,13.0,72,0.00,BKN,,0.53,WeatherDisplay:10.37,2013-05-19 21:24:00,
2013-05-19 16:29:00,82.1,71.8,29.59,South,179,6.0,12.0,71,0.00,BKN,,0.53,WeatherDisplay:10.37,2013-05-19 21:29:00,
2013-05-19 16:34:00,82.4,71.6,29.61,SSE,164,7.0,14.0,70,0.00,BKN,,0.53,WeatherDisplay:10.37,2013-05-19 21:34:00,
2013-05-19 16:39:00,82.1,71.8,29.61,South,188,7.0,15.0,71,0.00,BKN,,0.53,WeatherDisplay:10.37,2013-05-19 21:39:00,
2013-05-19 16:49:00,81.4,70.7,29.59,SSW,198,5.0,16.0,70,0.00,BKN,,0.53,WeatherDisplay:10.37,2013-05-19 21:49:00,
2013-05-19 16:54:00,81.8,71.4,29.59,SSW,197,6.0,16.0,71,0.00,BKN,,0.53,WeatherDisplay:10.37,2013-05-19 21:54:00,
2013-05-19 16:59:00,82.3,71.5,29.59,SSW,193,7.0,15.0,70,0.00,BKN,,0.53,WeatherDisplay:10.37,2013-05-19 21:59:00,
2013-05-19 17:09:00,83.1,72.3,29.59,SSW,201,5.0,10.0,70,0.00,CLR,,0.53,WeatherDisplay:10.37,2013-05-19 22:09:00,
2013-05-19 17:14:00,83.3,72.1,29.59,SW,219,3.0,12.0,69,0.00,CLR,,0.53,WeatherDisplay:10.37,2013-05-19 22:14:00,
2013-05-19 17:19:00,82.9,70.8,29.58,SSW,207,3.0,15.0,67,0.00,CLR,,0.53,WeatherDisplay:10.37,2013-05-19 22:19:00,
2013-05-19 17:29:00,82.2,71.0,29.59,SW,233,6.0,14.0,69,0.00,CLR,,0.53,WeatherDisplay:10.37,2013-05-19 22:29:00,
2013-05-19 17:39:00,80.7,70.0,29.58,SW,228,6.0,15.0,70,0.00,CLR,,0.53,WeatherDisplay:10.37,2013-05-19 22:39:00,
2013-05-19 17:49:00,80.1,69.8,29.59,SW,229,6.0,16.0,71,0.00,CLR,,0.53,WeatherDisplay:10.37,2013-05-19 22:49:00,
2013-05-19 17:54:00,79.7,69.5,29.58,SW,216,6.0,18.0,71,0.00,CLR,,0.53,WeatherDisplay:10.37,2013-05-19 22:54:00,
2013-05-19 17:59:00,79.5,70.1,29.58,SSW,210,5.0,15.0,73,0.00,CLR,,0.53,WeatherDisplay:10.37,2013-05-19 22:59:00,
2013-05-19 18:09:00,79.2,69.8,29.59,SW,224,5.0,13.0,73,0.00,CLR,,0.53,WeatherDisplay:10.37,2013-05-19 23:09:00,
2013-05-19 18:14:00,79.0,69.6,29.58,SW,233,6.0,13.0,73,0.00,SCT,,0.53,WeatherDisplay:10.37,2013-05-19 23:14:00,
2013-05-19 18:19:00,78.8,69.8,29.58,SW,222,5.0,10.0,74,0.00,SCT,,0.53,WeatherDisplay:10.37,2013-05-19 23:19:00,
2013-05-19 18:29:00,78.4,69.8,29.59,SW,214,5.0,14.0,75,0.00,SCT,,0.53,WeatherDisplay:10.37,2013-05-19 23:29:00,
2013-05-19 18:34:00,78.4,69.8,29.60,SW,225,3.0,10.0,75,0.00,SCT,,0.53,WeatherDisplay:10.37,2013-05-19 23:34:00,
2013-05-19 18:39:00,78.2,70.1,29.60,WSW,240,5.0,10.0,76,0.00,SCT,,0.53,WeatherDisplay:10.37,2013-05-19 23:39:00,
2013-05-19 18:44:00,78.2,70.0,29.59,WSW,239,5.0,14.0,76,0.00,SCT,,0.53,WeatherDisplay:10.37,2013-05-19 23:44:00,
2013-05-19 18:49:00,78.0,70.2,29.59,SW,228,5.0,10.0,77,0.00,SCT,,0.53,WeatherDisplay:10.37,2013-05-19 23:49:00,
2013-05-19 18:54:00,77.9,70.1,29.59,SW,235,5.0,10.0,77,0.00,SCT,,0.53,WeatherDisplay:10.37,2013-05-19 23:54:00,
2013-05-19 18:59:00,77.7,69.9,29.59,WSW,251,5.0,14.0,77,0.00,SCT,,0.53,WeatherDisplay:10.37,2013-05-19 23:59:00,
2013-05-19 19:09:00,77.5,69.7,29.59,WSW,241,3.0,9.0,77,0.00,SCT,,0.53,WeatherDisplay:10.37,2013-05-20 00:09:00,
2013-05-19 19:14:00,77.3,69.5,29.59,SW,225,2.0,9.0,77,0.00,SCT,,0.53,WeatherDisplay:10.37,2013-05-20 00:14:00,
2013-05-19 19:19:00,77.3,69.9,29.59,SW,225,8.0,14.0,78,0.00,SCT,,0.53,WeatherDisplay:10.37,2013-05-20 00:19:00,
2013-05-19 19:29:00,74.7,64.6,29.66,WSW,249,10.0,37.0,71,0.02,RA,,0.55,WeatherDisplay:10.37,2013-05-20 00:29:00,
2013-05-19 19:34:00,70.3,62.4,29.68,WSW,241,15.0,31.0,76,0.05, +RA,,0.60,WeatherDisplay:10.37,2013-05-20 00:34:00,
2013-05-19 19:44:00,64.9,60.6,29.64,WSW,257,9.0,19.0,86,0.03, +RA,,0.70,WeatherDisplay:10.37,2013-05-20 00:44:00,
2013-05-19 19:49:00,63.6,60.3,29.63,West,260,7.0,18.0,89,0.01, +RA,,0.71,WeatherDisplay:10.37,2013-05-20 00:49:00,
2013-05-19 19:54:00,63.1,60.1,29.64,West,262,6.0,14.0,90,0.00,-RA,,0.71,WeatherDisplay:10.37,2013-05-20 00:54:00,
2013-05-19 20:04:00,62.5,60.1,29.66,WSW,248,7.0,13.0,92,0.00,RA,,0.72,WeatherDisplay:10.37,2013-05-20 01:04:00,
2013-05-19 20:09:00,62.5,60.4,29.66,WSW,241,6.0,13.0,93,0.01,RA,,0.73,WeatherDisplay:10.37,2013-05-20 01:09:00,
2013-05-19 20:14:00,62.3,60.2,29.67,SW,230,6.0,15.0,93,0.01,RA,,0.74,WeatherDisplay:10.37,2013-05-20 01:14:00,
2013-05-19 20:24:00,62.3,60.6,29.66,SW,220,2.0,16.0,94,0.01,RA,,0.77,WeatherDisplay:10.37,2013-05-20 01:24:00,
2013-05-19 20:29:00,62.2,60.4,29.63,SSW,210,2.0,8.0,94,0.01,RA,,0.78,WeatherDisplay:10.37,2013-05-20 01:29:00,
2013-05-19 20:34:00,62.3,60.5,29.61,SE,136,2.0,8.0,94,0.00,RA,,0.78,WeatherDisplay:10.37,2013-05-20 01:34:00,
2013-05-19 20:44:00,62.3,60.8,29.59,East,86,3.0,9.0,95,0.00,OVC,,0.78,WeatherDisplay:10.37,2013-05-20 01:44:00,
2013-05-19 20:49:00,62.2,60.7,29.61,ESE,119,1.0,5.0,95,0.00,OVC,,0.78,WeatherDisplay:10.37,2013-05-20 01:49:00,
2013-05-19 20:54:00,62.1,60.7,29.62,SE,143,1.0,8.0,95,0.00,BKN,,0.78,WeatherDisplay:10.37,2013-05-20 01:54:00,
2013-05-19 21:04:00,62.0,60.6,29.61,SSW,205,2.0,8.0,95,0.00,BKN,,0.78,WeatherDisplay:10.37,2013-05-20 02:04:00,
2013-05-19 21:09:00,61.8,60.4,29.62,SW,220,2.0,10.0,95,0.00,BKN,,0.78,WeatherDisplay:10.37,2013-05-20 02:09:00,
2013-05-19 21:14:00,61.8,60.4,29.62,SW,229,5.0,13.0,95,0.00,CLR,,0.78,WeatherDisplay:10.37,2013-05-20 02:14:00,
2013-05-19 21:24:00,61.8,60.4,29.61,SW,218,3.0,12.0,95,0.00,CLR,,0.78,WeatherDisplay:10.37,2013-05-20 02:24:00,
2013-05-19 21:29:00,61.8,60.4,29.61,SW,221,6.0,10.0,95,0.00,CLR,,0.78,WeatherDisplay:10.37,2013-05-20 02:29:00,
2013-05-19 21:34:00,61.8,60.4,29.61,SW,229,5.0,10.0,95,0.00,CLR,,0.78,WeatherDisplay:10.37,2013-05-20 02:34:00,
2013-05-19 21:44:00,62.0,60.3,29.63,SW,231,5.0,10.0,94,0.00,CLR,,0.78,WeatherDisplay:10.37,2013-05-20 02:44:00,
2013-05-19 21:49:00,62.3,60.6,29.64,SW,236,10.0,21.0,94,0.00,CLR,,0.78,WeatherDisplay:10.37,2013-05-20 02:49:00,
2013-05-19 21:54:00,62.8,60.5,29.63,WSW,250,7.0,15.0,92,0.00,CLR,,0.78,WeatherDisplay:10.37,2013-05-20 02:54:00,
2013-05-19 22:04:00,63.7,60.7,29.62,SW,229,5.0,14.0,90,0.00,CLR,,0.78,WeatherDisplay:10.37,2013-05-20 03:04:00,
2013-05-19 22:09:00,63.9,60.9,29.64,SW,222,5.0,13.0,90,0.00,CLR,,0.78,WeatherDisplay:10.37,2013-05-20 03:09:00,
2013-05-19 22:14:00,64.1,60.8,29.64,WSW,238,5.0,8.0,89,0.00,CLR,,0.78,WeatherDisplay:10.37,2013-05-20 03:14:00,
2013-05-19 22:24:00,64.2,60.6,29.62,West,261,0.0,5.0,88,0.00,CLR,,0.78,WeatherDisplay:10.37,2013-05-20 03:24:00,
2013-05-19 22:29:00,64.2,60.9,29.63,West,266,2.0,8.0,89,0.00,CLR,,0.78,WeatherDisplay:10.37,2013-05-20 03:29:00,
2013-05-19 22:34:00,64.1,60.8,29.65,SW,232,3.0,8.0,89,0.00,CLR,,0.78,WeatherDisplay:10.37,2013-05-20 03:34:00,
2013-05-19 22:39:00,63.9,60.6,29.67,SW,230,3.0,13.0,89,0.00,CLR,,0.78,WeatherDisplay:10.37,2013-05-20 03:39:00,
2013-05-19 22:49:00,64.2,60.9,29.66,SW,233,3.0,9.0,89,0.00,CLR,,0.78,WeatherDisplay:10.37,2013-05-20 03:49:00,
2013-05-19 22:54:00,64.4,61.1,29.67,SSE,162,1.0,6.0,89,0.00,CLR,,0.78,WeatherDisplay:10.37,2013-05-20 03:54:00,
2013-05-19 23:04:00,64.4,61.1,29.67,WSW,255,2.0,6.0,89,0.00,-RA,,0.78,WeatherDisplay:10.37,2013-05-20 04:04:00,
2013-05-19 23:09:00,64.4,61.4,29.67,WSW,256,1.0,5.0,90,0.00,-RA,,0.78,WeatherDisplay:10.37,2013-05-20 04:09:00,
2013-05-19 23:14:00,64.4,61.4,29.68,West,260,0.0,4.0,90,0.00,-RA,,0.78,WeatherDisplay:10.37,2013-05-20 04:14:00,
2013-05-19 23:19:00,64.2,61.9,29.68,West,260,0.0,4.0,92,0.00,-RA,,0.78,WeatherDisplay:10.37,2013-05-20 04:19:00,
2013-05-19 23:24:00,63.9,61.2,29.69,West,260,2.0,4.0,91,0.00,-RA,,0.78,WeatherDisplay:10.37,2013-05-20 04:24:00,
2013-05-19 23:29:00,63.9,61.8,29.69,West,260,1.0,4.0,93,0.00,-RA,,0.78,WeatherDisplay:10.37,2013-05-20 04:29:00,
2013-05-19 23:34:00,63.7,61.6,29.69,West,260,0.0,3.0,93,0.00,-RA,,0.78,WeatherDisplay:10.37,2013-05-20 04:34:00,
2013-05-19 23:39:00,63.5,61.7,29.69,West,260,0.0,0.0,94,0.00,-RA,,0.78,WeatherDisplay:10.37,2013-05-20 04:39:00,
2013-05-19 23:44:00,63.2,61.1,29.68,West,260,0.0,3.0,93,0.00,-RA,,0.78,WeatherDisplay:10.37,2013-05-20 04:44:00,
2013-05-19 23:49:00,63.1,61.3,29.67,West,260,0.0,3.0,94,0.00,-RA,,0.78,WeatherDisplay:10.37,2013-05-20 04:49:00,
2013-05-19 23:54:00,62.9,61.2,29.67,SW,234,1.0,6.0,94,0.00,-RA,,0.78,WeatherDisplay:10.37,2013-05-20 04:54:00,
2013-05-19 23:59:00,62.6,60.8,29.68,ESE,120,0.0,4.0,94,0.00,-RA,,0.00,WeatherDisplay:10.37,2013-05-20 04:59:00,